Terminal Aerodrome Forecast
Issued by NWS Charleston, SC

Home | Current Version | Previous Version | Text Only | Print | Product List | Glossary On
Versions: 1 2 3 4 5 6 7 8 9 10 11 12 13
000
FTUS42 KCHS 061128
TAFSAV
TAF
KSAV 061128Z 0612/0712 04010KT P6SM SCT040 BKN250
     FM061700 06012G18KT P6SM BKN050
     FM070000 01007KT P6SM SCT025 BKN150=

USA.gov is the U.S. government's official web portal to all federal, state and local government web resources and services.